Time;durP1;ratioP1;P1;durP2;ratioP2;P2;SDS_P1;SDS_P2;PMS_P1;PMS_P2;Temp;Humidity;BMP_temperature;BMP_pressure;BME280_temperature;BME280_humidity;BME280_pressure;Samples;Min_cycle;Max_cycle;Signal;HPM_P1;HPM_P2
2023/08/23 00:01:45;;;;;;;5.07;2.28;;;;;;;24.94;100.00;96517.06;5126421;27;20205;-74
2023/08/23 00:04:13;;;;;;;3.38;1.85;;;;;;;25.06;100.00;96521.19;5126211;28;20198;-71
2023/08/23 00:06:40;;;;;;;6.78;2.70;;;;;;;25.00;100.00;96514.13;5125978;28;20712;-72
2023/08/23 00:09:06;;;;;;;3.00;2.10;;;;;;;25.02;100.00;96514.66;5126171;27;20206;-72
2023/08/23 00:11:33;;;;;;;7.13;2.80;;;;;;;24.92;100.00;96511.09;5126336;28;20228;-72
2023/08/23 00:14:00;;;;;;;5.35;3.17;;;;;;;25.01;100.00;96512.22;5126410;27;20207;-72
2023/08/23 00:16:26;;;;;;;3.72;2.60;;;;;;;24.80;100.00;96516.66;5125578;28;20222;-73
2023/08/23 00:18:53;;;;;;;5.35;2.58;;;;;;;24.71;100.00;96512.03;5126103;27;20202;-72
2023/08/23 00:21:21;;;;;;;3.60;2.40;;;;;;;24.91;100.00;96513.00;5125828;27;20214;-72
2023/08/23 00:23:47;;;;;;;5.93;3.15;;;;;;;24.61;100.00;96510.03;5125967;27;20198;-71
2023/08/23 00:26:14;;;;;;;3.88;2.58;;;;;;;24.63;100.00;96499.84;5125690;28;20215;-73
2023/08/23 00:28:41;;;;;;;10.63;2.92;;;;;;;24.62;100.00;96513.56;5125915;27;20207;-72
2023/08/23 00:31:08;;;;;;;5.68;2.63;;;;;;;24.59;100.00;96525.69;5125743;27;20206;-72
2023/08/23 00:33:34;;;;;;;5.13;2.70;;;;;;;24.58;100.00;96537.53;5126501;27;21128;-70
2023/08/23 00:36:01;;;;;;;4.93;2.67;;;;;;;24.66;100.00;96531.66;5125806;27;20229;-72
2023/08/23 00:38:29;;;;;;;4.95;2.97;;;;;;;24.60;100.00;96537.25;5126488;27;20206;-73
2023/08/23 00:40:55;;;;;;;4.82;3.13;;;;;;;24.30;100.00;96519.97;5125912;28;20206;-72
2023/08/23 00:43:22;;;;;;;5.20;3.05;;;;;;;24.20;100.00;96507.22;5126486;27;20203;-73
2023/08/23 00:45:48;;;;;;;5.75;3.40;;;;;;;24.31;100.00;96527.81;5125995;27;20226;-72
2023/08/23 00:48:15;;;;;;;5.72;3.38;;;;;;;24.25;100.00;96525.31;5125740;27;20195;-72
2023/08/23 00:50:43;;;;;;;5.05;3.25;;;;;;;24.42;100.00;96526.06;5125361;27;20198;-71
2023/08/23 00:53:11;;;;;;;6.13;3.13;;;;;;;24.26;100.00;96521.53;5125584;27;20617;-73
2023/08/23 00:55:39;;;;;;;7.55;3.47;;;;;;;24.17;100.00;96517.69;5126043;27;20606;-73
2023/08/23 00:58:06;;;;;;;11.85;3.60;;;;;;;24.24;100.00;96521.00;5113899;28;20583;-72
2023/08/23 01:00:34;;;;;;;6.50;3.30;;;;;;;24.19;100.00;96512.88;5111238;28;20661;-72
2023/08/23 01:03:01;;;;;;;4.63;3.00;;;;;;;24.12;100.00;96506.88;5111153;28;20217;-72
2023/08/23 01:05:36;;;;;;;5.57;3.10;;;;;;;24.21;100.00;96513.41;5111585;28;20218;-72
2023/08/23 01:08:12;;;;;;;8.30;3.33;;;;;;;24.06;100.00;96518.66;5111618;28;20221;-71
2023/08/23 01:10:47;;;;;;;4.60;2.85;;;;;;;24.04;100.00;96526.16;5111840;28;20217;-73
2023/08/23 01:13:21;;;;;;;4.88;2.72;;;;;;;24.14;100.00;96527.09;5112051;28;20205;-73
2023/08/23 01:15:49;;;;;;;7.53;3.40;;;;;;;24.01;100.00;96535.56;5112160;28;20606;-73
2023/08/23 01:18:16;;;;;;;5.25;3.08;;;;;;;24.28;100.00;96525.63;5111534;28;20199;-73
2023/08/23 01:20:44;;;;;;;6.30;3.25;;;;;;;24.38;100.00;96533.00;5112282;28;20201;-73
2023/08/23 01:23:14;;;;;;;5.40;2.78;;;;;;;24.43;100.00;96520.41;5112011;28;20213;-73
2023/08/23 01:25:44;;;;;;;5.22;3.10;;;;;;;24.40;100.00;96525.50;5111907;28;20215;-73
2023/08/23 01:28:10;;;;;;;5.68;2.70;;;;;;;24.16;100.00;96524.97;5111859;28;20322;-72
2023/08/23 01:30:39;;;;;;;5.82;3.00;;;;;;;24.18;100.00;96524.72;5111086;28;20566;-71
2023/08/23 01:33:13;;;;;;;6.10;3.40;;;;;;;24.27;100.00;96534.75;5110913;28;20207;-71
2023/08/23 01:35:47;;;;;;;6.13;3.20;;;;;;;24.32;100.00;96534.00;5110279;28;20229;-73
2023/08/23 01:38:17;;;;;;;6.15;3.30;;;;;;;24.19;100.00;96529.84;5110871;28;20202;-71
2023/08/23 01:40:44;;;;;;;5.38;3.35;;;;;;;24.06;100.00;96529.44;5111254;27;20203;-72
2023/08/23 01:43:11;;;;;;;5.40;3.00;;;;;;;23.97;100.00;96526.38;5112460;28;20210;-73
2023/08/23 01:45:38;;;;;;;6.25;3.13;;;;;;;24.02;100.00;96523.75;5111578;28;20223;-71
2023/08/23 01:48:04;;;;;;;4.78;3.30;;;;;;;23.93;100.00;96524.47;5110776;28;20203;-72
2023/08/23 01:50:31;;;;;;;8.13;3.65;;;;;;;24.01;100.00;96521.31;5111243;28;20199;-73
2023/08/23 01:52:58;;;;;;;8.05;3.55;;;;;;;24.05;100.00;96519.72;5111349;28;20206;-72
2023/08/23 01:55:26;;;;;;;6.70;3.35;;;;;;;24.14;100.00;96515.50;5111034;28;20241;-73
2023/08/23 01:57:53;;;;;;;4.15;2.50;;;;;;;24.00;100.00;96514.28;5111372;28;20201;-72
2023/08/23 02:00:19;;;;;;;6.43;3.35;;;;;;;24.03;100.00;96513.78;5110390;28;20199;-72
2023/08/23 02:02:46;;;;;;;5.63;3.35;;;;;;;24.08;100.00;96519.22;5110536;28;20290;-71
2023/08/23 02:05:12;;;;;;;4.65;2.88;;;;;;;23.98;100.00;96511.84;5109923;28;20230;-73
2023/08/23 02:07:39;;;;;;;6.90;3.15;;;;;;;23.98;100.00;96506.47;5110326;27;20291;-72
2023/08/23 02:10:06;;;;;;;3.63;2.53;;;;;;;23.93;100.00;96501.03;5110069;28;20207;-72
2023/08/23 02:12:34;;;;;;;4.00;2.63;;;;;;;23.94;100.00;96504.53;5111196;28;20195;-72
2023/08/23 02:15:01;;;;;;;6.03;2.90;;;;;;;23.86;100.00;96496.91;5110592;28;20779;-72
2023/08/23 02:17:27;;;;;;;6.32;2.45;;;;;;;23.79;100.00;96501.69;5110129;28;20234;-72
2023/08/23 02:19:54;;;;;;;4.72;2.72;;;;;;;23.73;100.00;96516.13;5110582;28;20209;-72
2023/08/23 02:22:20;;;;;;;4.15;2.58;;;;;;;23.75;100.00;96511.34;5110491;28;20195;-72
2023/08/23 02:24:47;;;;;;;6.38;3.00;;;;;;;23.76;100.00;96507.56;5110475;28;20320;-72
2023/08/23 02:27:13;;;;;;;6.97;3.45;;;;;;;23.67;100.00;96506.34;5110599;28;20740;-73
2023/08/23 02:29:41;;;;;;;4.22;2.90;;;;;;;23.66;100.00;96501.22;5110961;28;20203;-72
2023/08/23 02:32:08;;;;;;;5.15;3.20;;;;;;;23.32;100.00;96500.53;5110960;28;20203;-73
2023/08/23 02:34:34;;;;;;;5.97;3.10;;;;;;;23.25;100.00;96496.41;5110797;28;20202;-73
2023/08/23 02:37:01;;;;;;;4.32;2.92;;;;;;;23.30;100.00;96491.88;5110538;28;20223;-72
2023/08/23 02:39:28;;;;;;;4.55;3.15;;;;;;;23.38;100.00;96494.16;5110079;28;20203;-72
2023/08/23 02:41:54;;;;;;;10.20;3.17;;;;;;;23.33;100.00;96495.94;5109753;28;20551;-71
2023/08/23 02:47:44;;;;;;;7.32;2.78;;;;;;;23.27;100.00;96496.97;5108917;28;20209;-72
2023/08/23 02:50:10;;;;;;;4.03;2.75;;;;;;;23.19;100.00;96507.34;5110075;28;20207;-71
2023/08/23 02:52:37;;;;;;;4.88;3.17;;;;;;;23.09;100.00;96494.56;5109613;28;20233;-72
2023/08/23 02:55:04;;;;;;;4.38;2.95;;;;;;;23.01;100.00;96503.03;5109263;28;20589;-72
2023/08/23 02:57:30;;;;;;;6.30;2.95;;;;;;;22.98;100.00;96491.97;5109194;28;20215;-71
2023/08/23 02:59:57;;;;;;;7.80;2.92;;;;;;;22.96;100.00;96494.91;5109119;28;20205;-73
2023/08/23 03:02:23;;;;;;;4.97;2.80;;;;;;;23.02;100.00;96493.13;5109158;28;20199;-74
2023/08/23 03:04:52;;;;;;;7.03;3.03;;;;;;;23.19;100.00;96488.50;5108865;28;20214;-72
2023/08/23 03:07:18;;;;;;;5.40;2.92;;;;;;;22.86;100.00;96492.06;5108840;28;20681;-72
2023/08/23 03:09:45;;;;;;;6.25;3.38;;;;;;;22.64;100.00;96487.69;5109327;28;20202;-72
2023/08/23 03:12:11;;;;;;;4.28;2.60;;;;;;;22.71;100.00;96486.44;5108953;28;20668;-72
2023/08/23 03:14:37;;;;;;;6.68;3.17;;;;;;;22.82;100.00;96487.41;5108970;28;20192;-72
2023/08/23 03:17:04;;;;;;;7.78;3.78;;;;;;;22.92;100.00;96491.06;5108541;28;20215;-72
2023/08/23 03:19:31;;;;;;;5.78;3.20;;;;;;;22.77;100.00;96492.72;5108778;28;20672;-71
2023/08/23 03:21:58;;;;;;;5.40;2.80;;;;;;;22.81;100.00;96491.97;5108780;28;20199;-72
2023/08/23 03:24:25;;;;;;;5.93;3.20;;;;;;;22.76;100.00;96491.09;5108954;28;20202;-73
2023/08/23 03:26:51;;;;;;;5.63;3.28;;;;;;;22.71;100.00;96496.41;5108670;28;20790;-73
2023/08/23 03:29:18;;;;;;;4.43;2.95;;;;;;;22.63;100.00;96490.63;5108768;28;20214;-73
2023/08/23 03:31:44;;;;;;;4.18;2.58;;;;;;;22.65;100.00;96492.00;5109185;28;20564;-73
2023/08/23 03:34:11;;;;;;;3.90;2.60;;;;;;;22.64;100.00;96495.72;5108786;28;20199;-72
2023/08/23 03:36:37;;;;;;;4.85;2.95;;;;;;;22.57;100.00;96495.09;5108623;28;20222;-72
2023/08/23 03:39:05;;;;;;;5.13;3.00;;;;;;;22.66;100.00;96496.31;5108658;28;20199;-70
2023/08/23 03:41:32;;;;;;;4.93;2.63;;;;;;;22.44;100.00;96489.22;5108574;28;20207;-72
2023/08/23 03:43:58;;;;;;;5.10;3.20;;;;;;;22.43;100.00;96491.13;5108771;28;20203;-70
2023/08/23 03:46:25;;;;;;;7.07;3.45;;;;;;;22.51;100.00;96493.38;5108365;28;20223;-72
2023/08/23 03:48:52;;;;;;;4.13;2.50;;;;;;;22.48;100.00;96499.25;5108895;28;20645;-73
2023/08/23 03:51:18;;;;;;;3.97;2.58;;;;;;;22.41;100.00;96501.28;5108548;28;20741;-71
2023/08/23 03:53:45;;;;;;;5.00;3.00;;;;;;;22.35;100.00;96504.13;5108726;28;20201;-72
2023/08/23 03:56:13;;;;;;;5.32;3.05;;;;;;;22.47;100.00;96507.56;5108045;28;20223;-72
2023/08/23 03:58:39;;;;;;;5.65;2.88;;;;;;;22.28;100.00;96506.16;5108432;28;20214;-72
2023/08/23 04:01:06;;;;;;;5.35;3.45;;;;;;;22.32;100.00;96508.09;5108615;28;20199;-72
2023/08/23 04:03:32;;;;;;;4.65;2.75;;;;;;;22.35;100.00;96501.44;5108735;28;20580;-72
2023/08/23 04:06:02;;;;;;;5.32;2.90;;;;;;;22.51;100.00;96506.81;5108612;28;20230;-72
2023/08/23 04:08:28;;;;;;;5.13;2.97;;;;;;;22.44;100.00;96511.56;5108080;28;21073;-72
2023/08/23 04:10:55;;;;;;;3.30;2.25;;;;;;;22.51;100.00;96501.44;5108501;28;20203;-72
2023/08/23 04:13:23;;;;;;;7.15;3.08;;;;;;;22.66;100.00;96492.81;5108609;28;20199;-72
2023/08/23 04:15:49;;;;;;;3.72;2.53;;;;;;;22.51;100.00;96501.44;5108495;28;20252;-72
2023/08/23 04:18:16;;;;;;;4.65;3.08;;;;;;;22.42;100.00;96502.91;5108713;28;20237;-73
2023/08/23 04:20:42;;;;;;;5.32;2.65;;;;;;;22.43;100.00;96506.41;5108758;28;20213;-72
2023/08/23 04:23:09;;;;;;;5.15;2.83;;;;;;;22.33;100.00;96506.25;5108653;28;20202;-73
2023/08/23 04:25:35;;;;;;;5.55;3.22;;;;;;;22.07;100.00;96499.59;5108445;28;20229;-71
2023/08/23 04:28:02;;;;;;;6.55;3.28;;;;;;;21.92;100.00;96505.72;5108748;28;20197;-73
2023/08/23 04:30:30;;;;;;;7.97;3.38;;;;;;;22.18;100.00;96512.13;5108464;28;20199;-72
2023/08/23 04:32:56;;;;;;;5.53;3.10;;;;;;;22.25;100.00;96518.16;5110450;28;20207;-71
2023/08/23 04:35:23;;;;;;;5.47;3.22;;;;;;;22.20;100.00;96519.97;5111952;28;20217;-72
2023/08/23 04:37:50;;;;;;;5.03;2.53;;;;;;;22.23;100.00;96533.69;5111978;28;20215;-71
2023/08/23 04:40:16;;;;;;;6.78;3.47;;;;;;;22.30;100.00;96526.34;5111711;28;20686;-71
2023/08/23 04:42:43;;;;;;;7.28;3.22;;;;;;;22.33;100.00;96531.22;5112469;28;20191;-73
2023/08/23 04:45:10;;;;;;;7.80;3.97;;;;;;;22.44;100.00;96527.66;5111920;28;20594;-73
2023/08/23 04:47:38;;;;;;;5.13;2.70;;;;;;;22.60;100.00;96528.72;5111814;28;20192;-71
2023/08/23 04:50:06;;;;;;;9.02;3.63;;;;;;;22.54;100.00;96527.81;5111962;28;20207;-71
2023/08/23 04:52:32;;;;;;;5.43;3.40;;;;;;;22.49;100.00;96525.06;5111959;27;20728;-71
2023/08/23 04:54:59;;;;;;;4.70;3.28;;;;;;;22.51;100.00;96520.25;5111560;28;20215;-70
2023/08/23 04:57:25;;;;;;;4.80;2.95;;;;;;;22.60;100.00;96513.41;5111125;28;20225;-70
2023/08/23 04:59:52;;;;;;;5.13;3.30;;;;;;;22.58;100.00;96512.03;5112437;28;20604;-70
2023/08/23 05:02:19;;;;;;;9.00;3.28;;;;;;;22.51;100.00;96516.75;5111399;28;20199;-71
2023/08/23 05:04:46;;;;;;;4.43;2.92;;;;;;;22.69;100.00;96528.06;5111584;27;20199;-71
2023/08/23 05:07:13;;;;;;;6.25;3.30;;;;;;;22.57;100.00;96521.13;5111058;28;20211;-70
2023/08/23 05:09:39;;;;;;;6.47;3.75;;;;;;;22.69;100.00;96531.56;5112511;28;20206;-70
2023/08/23 05:12:06;;;;;;;5.55;3.22;;;;;;;22.84;100.00;96531.78;5112072;28;20199;-70
2023/08/23 05:14:33;;;;;;;6.50;3.60;;;;;;;22.77;100.00;96533.00;5111128;28;20203;-71
2023/08/23 05:16:59;;;;;;;9.05;3.20;;;;;;;22.84;100.00;96534.47;5111257;28;20226;-70
2023/08/23 05:19:26;;;;;;;4.78;2.85;;;;;;;22.90;100.00;96536.19;5111257;28;20191;-71
2023/08/23 05:21:54;;;;;;;6.43;3.28;;;;;;;23.09;100.00;96542.13;5111154;28;20286;-71
2023/08/23 05:24:20;;;;;;;5.13;3.05;;;;;;;23.05;100.00;96538.31;5111281;28;20203;-71
2023/08/23 05:26:47;;;;;;;5.30;3.28;;;;;;;23.10;100.00;96544.56;5110767;28;20590;-72
2023/08/23 05:29:13;;;;;;;4.95;3.15;;;;;;;23.21;100.00;96546.38;5111138;28;20210;-70
2023/08/23 05:31:40;;;;;;;4.47;2.80;;;;;;;23.30;100.00;96544.06;5111591;28;20203;-70
2023/08/23 05:34:06;;;;;;;6.32;3.22;;;;;;;23.31;100.00;96533.84;5111734;28;20684;-69
2023/08/23 05:36:33;;;;;;;5.80;3.33;;;;;;;23.33;100.00;96550.56;5110788;28;20238;-71
2023/08/23 05:39:03;;;;;;;5.68;3.40;;;;;;;23.53;100.00;96540.06;5111059;28;20206;-71
2023/08/23 05:41:29;;;;;;;7.00;3.42;;;;;;;23.30;100.00;96548.38;5110833;27;20578;-71
2023/08/23 05:43:56;;;;;;;5.80;3.17;;;;;;;23.12;100.00;96547.03;5110920;28;20210;-71
2023/08/23 05:46:22;;;;;;;5.75;3.22;;;;;;;23.39;100.00;96549.56;5110277;28;20724;-69
2023/08/23 05:48:49;;;;;;;5.15;3.03;;;;;;;23.48;100.00;96553.44;5110680;28;20696;-71
2023/08/23 05:51:16;;;;;;;7.63;3.88;;;;;;;23.57;100.00;96545.78;5110536;28;20686;-70
2023/08/23 05:53:42;;;;;;;4.72;3.03;;;;;;;23.66;100.00;96547.78;5111043;28;20202;-72
2023/08/23 05:56:10;;;;;;;6.05;2.72;;;;;;;23.64;100.00;96549.91;5110134;28;20226;-71
2023/08/23 05:58:36;;;;;;;5.65;3.47;;;;;;;23.61;100.00;96550.41;5110499;28;20317;-71
2023/08/23 06:01:03;;;;;;;5.22;2.95;;;;;;;23.67;100.00;96552.09;5111415;28;20199;-71
2023/08/23 06:03:29;;;;;;;6.90;3.38;;;;;;;23.61;100.00;96552.28;5111080;28;20200;-69
2023/08/23 06:05:56;;;;;;;5.53;3.10;;;;;;;23.61;100.00;96553.09;5110816;28;20219;-71
2023/08/23 06:08:23;;;;;;;8.75;3.47;;;;;;;23.71;100.00;96555.94;5111019;28;20203;-71
2023/08/23 06:10:49;;;;;;;7.70;3.15;;;;;;;23.77;100.00;96552.25;5110739;28;20657;-71
2023/08/23 06:13:17;;;;;;;7.30;2.85;;;;;;;24.01;100.00;96564.38;5110133;28;20254;-72
2023/08/23 06:15:44;;;;;;;9.00;3.58;;;;;;;23.92;100.00;96565.91;5110113;28;20700;-70
2023/08/23 06:18:10;;;;;;;6.15;3.17;;;;;;;24.07;100.00;96558.81;5110535;28;20222;-71
2023/08/23 06:20:38;;;;;;;6.72;3.45;;;;;;;24.05;100.00;96565.50;5111005;28;20206;-71
2023/08/23 06:23:05;;;;;;;5.22;2.97;;;;;;;23.91;100.00;96561.56;5110097;28;20199;-73
2023/08/23 06:25:31;;;;;;;5.90;3.10;;;;;;;23.93;100.00;96556.75;5108897;28;20215;-73
2023/08/23 06:27:58;;;;;;;6.85;3.72;;;;;;;23.87;100.00;96547.00;5109809;28;20213;-71
2023/08/23 06:30:26;;;;;;;3.95;2.80;;;;;;;24.03;100.00;96548.78;5108681;28;20199;-74
2023/08/23 06:32:52;;;;;;;7.40;3.20;;;;;;;23.93;100.00;96556.75;5108910;28;20199;-72
2023/08/23 06:35:20;;;;;;;4.88;2.78;;;;;;;24.07;100.00;96563.34;5108126;28;20222;-72
2023/08/23 06:37:47;;;;;;;5.03;2.92;;;;;;;24.20;100.00;96552.22;5109153;28;20268;-71
2023/08/23 06:40:14;;;;;;;6.93;3.15;;;;;;;24.25;100.00;96554.94;5109680;28;20217;-72
2023/08/23 06:42:41;;;;;;;4.55;2.92;;;;;;;24.26;100.00;96551.19;5109827;28;20609;-74
2023/08/23 06:45:09;;;;;;;6.25;3.25;;;;;;;24.43;100.00;96551.94;5108420;28;20234;-70
2023/08/23 06:47:37;;;;;;;5.50;3.00;;;;;;;24.49;100.00;96561.69;5109613;28;20200;-73
2023/08/23 06:50:04;;;;;;;7.15;3.00;;;;;;;24.56;100.00;96555.81;5109358;28;20199;-72
2023/08/23 06:52:31;;;;;;;4.68;2.67;;;;;;;24.66;100.00;96558.59;5109424;28;20222;-72
2023/08/23 06:54:57;;;;;;;5.80;3.10;;;;;;;24.88;100.00;96562.00;5108561;28;20223;-70
2023/08/23 06:57:28;;;;;;;8.18;3.28;;;;;;;24.98;100.00;96556.72;5108721;28;20233;-69
2023/08/23 06:59:55;;;;;;;4.43;2.45;;;;;;;24.86;100.00;96553.38;5109282;28;20712;-72
2023/08/23 07:02:22;;;;;;;6.55;3.38;;;;;;;24.84;100.00;96555.53;5109000;28;21287;-73
2023/08/23 07:04:51;;;;;;;4.05;2.30;;;;;;;25.15;100.00;96546.59;5109317;28;20223;-71
2023/08/23 07:07:18;;;;;;;7.20;2.90;;;;;;;25.10;100.00;96546.59;5108754;28;20192;-69
2023/08/23 07:09:45;;;;;;;5.68;3.42;;;;;;;25.01;100.00;96553.47;5108784;28;20199;-69
2023/08/23 07:12:11;;;;;;;3.40;2.47;;;;;;;24.95;100.00;96551.84;5108873;28;20282;-69
2023/08/23 07:14:38;;;;;;;6.63;3.38;;;;;;;24.94;100.00;96554.81;5109004;28;20196;-72
2023/08/23 07:17:04;;;;;;;5.18;3.10;;;;;;;25.14;100.00;96554.97;5109002;28;20209;-72
2023/08/23 07:19:31;;;;;;;5.57;3.00;;;;;;;25.00;100.00;96565.38;5108588;27;20222;-72
2023/08/23 07:21:59;;;;;;;5.50;3.45;;;;;;;25.19;100.00;96569.31;5108338;28;20198;-72
2023/08/23 07:24:25;;;;;;;4.78;2.53;;;;;;;25.30;100.00;96571.78;5108468;28;20290;-72
2023/08/23 07:26:54;;;;;;;4.85;3.15;;;;;;;25.35;100.00;96565.63;5108128;28;20222;-72
2023/08/23 07:29:20;;;;;;;5.43;3.22;;;;;;;25.38;100.00;96565.09;5108437;28;20226;-72
2023/08/23 07:31:47;;;;;;;5.03;2.78;;;;;;;25.43;100.00;96568.66;5108821;28;20199;-72
2023/08/23 07:34:14;;;;;;;5.07;2.65;;;;;;;25.44;100.00;96572.97;5108504;28;20210;-72
2023/08/23 07:36:40;;;;;;;6.60;3.00;;;;;;;25.48;100.00;96570.56;5108798;28;20222;-73
2023/08/23 07:39:08;;;;;;;4.70;2.90;;;;;;;25.69;100.00;96575.81;5108400;28;20223;-72
2023/08/23 07:41:34;;;;;;;5.63;3.42;;;;;;;25.64;100.00;96577.69;5108334;28;20199;-72
2023/08/23 07:44:01;;;;;;;5.00;2.70;;;;;;;25.70;100.00;96569.38;5108878;28;20214;-73
2023/08/23 07:46:27;;;;;;;8.00;2.60;;;;;;;25.77;100.00;96569.13;5107936;28;20754;-72
2023/08/23 07:48:54;;;;;;;8.48;3.00;;;;;;;25.95;100.00;96564.91;5108645;28;20195;-72
2023/08/23 07:51:20;;;;;;;3.50;2.55;;;;;;;26.02;100.00;96568.16;5108016;28;20206;-69
2023/08/23 07:53:48;;;;;;;5.00;3.08;;;;;;;26.14;100.00;96568.72;5108492;28;20199;-70
2023/08/23 07:56:17;;;;;;;5.32;2.53;;;;;;;26.20;100.00;96566.88;5107873;28;20219;-70
2023/08/23 07:58:43;;;;;;;4.10;2.67;;;;;;;26.35;100.00;96569.63;5108472;28;20231;-72
2023/08/23 08:01:10;;;;;;;4.40;2.72;;;;;;;26.28;100.00;96567.13;5108365;28;20199;-73
2023/08/23 08:03:36;;;;;;;5.53;3.25;;;;;;;26.45;100.00;96565.88;5108382;28;20210;-72
2023/08/23 08:06:03;;;;;;;6.88;3.15;;;;;;;26.50;100.00;96567.75;5109261;28;20707;-71
2023/08/23 08:08:29;;;;;;;4.93;2.83;;;;;;;26.22;100.00;96562.00;5111525;28;20198;-69
2023/08/23 08:10:56;;;;;;;4.43;2.65;;;;;;;26.26;100.00;96566.63;5112603;28;20210;-69
2023/08/23 08:13:24;;;;;;;7.95;2.97;;;;;;;26.39;100.00;96571.53;5112262;27;20203;-69
2023/08/23 08:15:51;;;;;;;5.68;2.75;;;;;;;26.43;100.00;96567.22;5112551;28;20211;-69
2023/08/23 08:18:17;;;;;;;4.00;2.45;;;;;;;26.73;100.00;96567.25;5111806;28;20219;-72
2023/08/23 08:20:47;;;;;;;8.02;2.85;;;;;;;27.02;100.00;96566.47;5112287;28;20203;-73
2023/08/23 08:23:14;;;;;;;5.60;2.50;;;;;;;27.01;100.00;96570.28;5111995;28;20227;-72
2023/08/23 08:25:40;;;;;;;5.97;2.67;;;;;;;27.20;100.00;96566.75;5111803;28;20712;-72
2023/08/23 08:28:07;;;;;;;7.38;2.78;;;;;;;27.38;100.00;96568.88;5112376;27;20199;-72
2023/08/23 08:30:35;;;;;;;3.58;2.28;;;;;;;27.63;100.00;96573.44;5111766;28;20203;-71
2023/08/23 08:33:01;;;;;;;4.72;2.75;;;;;;;27.63;100.00;96576.97;5112193;28;20203;-72
2023/08/23 08:35:28;;;;;;;5.30;2.30;;;;;;;27.58;99.56;96576.16;5111580;28;20253;-72
2023/08/23 08:37:54;;;;;;;4.28;2.47;;;;;;;27.53;99.68;96576.94;5111802;28;20223;-71
2023/08/23 08:40:22;;;;;;;6.18;2.95;;;;;;;27.25;99.84;96569.44;5111967;28;20527;-71
2023/08/23 08:42:48;;;;;;;5.47;2.80;;;;;;;27.12;100.00;96572.69;5111806;28;20271;-71
2023/08/23 08:45:15;;;;;;;3.58;2.30;;;;;;;27.50;100.00;96568.59;5111397;28;20230;-71
2023/08/23 08:47:43;;;;;;;6.35;3.03;;;;;;;27.75;100.00;96562.03;5111804;28;20191;-72
2023/08/23 08:50:10;;;;;;;6.00;2.90;;;;;;;27.60;96.82;96561.28;5111429;28;20214;-71
2023/08/23 08:52:41;;;;;;;4.68;2.63;;;;;;;27.97;95.71;96561.69;5111564;28;20207;-72
2023/08/23 08:55:09;;;;;;;4.30;2.08;;;;;;;28.10;100.00;96564.59;5111543;28;20226;-71
2023/08/23 08:57:36;;;;;;;7.95;2.60;;;;;;;28.01;96.78;96560.03;5111321;28;20210;-72
2023/08/23 09:00:03;;;;;;;3.70;2.65;;;;;;;28.17;97.14;96559.72;5111611;27;20204;-72
2023/08/23 09:02:32;;;;;;;4.05;2.55;;;;;;;28.39;100.00;96560.94;5111707;28;20199;-71
2023/08/23 09:05:02;;;;;;;3.75;2.38;;;;;;;28.54;93.44;96560.84;5111416;28;20223;-72
2023/08/23 09:07:29;;;;;;;4.63;2.60;;;;;;;28.36;97.57;96558.00;5111447;28;20218;-72
2023/08/23 09:09:56;;;;;;;5.68;2.53;;;;;;;28.46;94.51;96560.63;5111356;28;20217;-71
2023/08/23 09:12:22;;;;;;;3.50;2.50;;;;;;;28.42;95.52;96563.13;5111090;28;20203;-72
2023/08/23 09:14:50;;;;;;;9.18;3.10;;;;;;;28.58;94.61;96561.09;5111555;28;20825;-71
2023/08/23 09:17:17;;;;;;;4.07;2.35;;;;;;;28.69;96.39;96563.47;5110765;28;20571;-72
2023/08/23 09:19:43;;;;;;;5.50;2.35;;;;;;;28.78;91.96;96569.94;5110623;28;20219;-72
2023/08/23 09:22:11;;;;;;;3.88;2.47;;;;;;;28.91;89.21;96566.59;5110874;28;20203;-72
2023/08/23 09:24:37;;;;;;;4.22;2.22;;;;;;;28.73;90.29;96567.28;5111075;28;20195;-71
2023/08/23 09:27:05;;;;;;;4.22;2.22;;;;;;;28.88;89.22;96567.13;5111212;28;20668;-71
2023/08/23 09:29:32;;;;;;;3.92;2.30;;;;;;;28.74;90.64;96565.34;5110822;28;20195;-71
2023/08/23 09:32:05;;;;;;;3.70;2.20;;;;;;;28.84;100.00;96566.09;5110795;28;20575;-72
2023/08/23 09:34:31;;;;;;;3.35;2.25;;;;;;;28.69;96.35;96566.19;5110998;28;20199;-72
2023/08/23 09:37:06;;;;;;;3.63;2.28;;;;;;;28.99;92.84;96563.25;5110697;28;20202;-71
2023/08/23 09:39:34;;;;;;;4.28;2.40;;;;;;;29.27;92.35;96567.91;5110788;28;20642;-71
2023/08/23 09:42:05;;;;;;;4.10;2.60;;;;;;;29.05;90.60;96565.66;5110697;28;20207;-70
2023/08/23 09:44:36;;;;;;;4.05;2.70;;;;;;;29.32;94.71;96565.97;5111035;28;20199;-72
2023/08/23 09:47:06;;;;;;;7.47;2.40;;;;;;;29.17;89.78;96576.13;5111162;28;20577;-71
2023/08/23 09:49:33;;;;;;;4.03;2.50;;;;;;;29.05;91.45;96567.56;5110685;28;20199;-72
2023/08/23 09:52:01;;;;;;;3.47;2.50;;;;;;;29.33;90.24;96578.47;5110528;28;20737;-72
2023/08/23 09:54:32;;;;;;;3.15;2.33;;;;;;;29.51;90.60;96576.94;5110592;28;21187;-71
2023/08/23 09:57:00;;;;;;;5.22;2.20;;;;;;;29.53;88.66;96572.81;5109754;28;20693;-71
2023/08/23 09:59:27;;;;;;;3.10;1.83;;;;;;;29.29;88.71;96580.09;5110360;28;20234;-71
2023/08/23 10:01:54;;;;;;;3.25;2.15;;;;;;;29.32;87.20;96568.69;5110501;28;20203;-72
2023/08/23 10:04:22;;;;;;;4.43;2.30;;;;;;;29.40;87.81;96572.69;5110176;28;20203;-72
2023/08/23 10:06:48;;;;;;;3.85;2.22;;;;;;;29.14;86.80;96582.94;5109951;28;20221;-70
2023/08/23 10:09:17;;;;;;;3.45;2.05;;;;;;;29.69;87.93;96585.97;5110273;28;20195;-70
2023/08/23 10:11:44;;;;;;;3.10;2.05;;;;;;;29.64;80.43;96572.41;5110163;28;20199;-69
2023/08/23 10:14:12;;;;;;;3.83;2.28;;;;;;;30.44;78.56;96571.50;5109749;28;20210;-69
2023/08/23 10:16:39;;;;;;;3.42;2.15;;;;;;;30.49;79.52;96566.00;5109260;28;20237;-69
2023/08/23 10:19:06;;;;;;;4.97;1.80;;;;;;;30.54;80.25;96560.50;5109507;28;20712;-69
2023/08/23 10:21:33;;;;;;;3.30;1.77;;;;;;;30.45;75.88;96560.34;5109268;28;20203;-69
2023/08/23 10:24:04;;;;;;;2.97;2.08;;;;;;;30.83;77.35;96551.88;5109417;28;20219;-69
2023/08/23 10:26:30;;;;;;;4.88;1.80;;;;;;;30.59;84.29;96546.78;5109643;28;20589;-69
2023/08/23 10:29:01;;;;;;;3.78;1.95;;;;;;;30.43;84.01;96545.41;5109655;28;20403;-69
2023/08/23 10:31:29;;;;;;;9.10;2.13;;;;;;;30.32;80.38;96542.00;5109455;28;20280;-69
2023/08/23 10:33:56;;;;;;;4.95;2.08;;;;;;;30.42;82.07;96541.06;5109378;28;20665;-70
2023/08/23 10:36:25;;;;;;;2.92;1.80;;;;;;;30.70;77.85;96549.06;5109208;28;20230;-70
2023/08/23 10:38:51;;;;;;;2.97;2.03;;;;;;;30.63;79.31;96531.53;5109620;28;20272;-70
2023/08/23 10:41:19;;;;;;;2.85;1.98;;;;;;;30.69;77.18;96533.88;5109915;28;20199;-69
2023/08/23 10:43:47;;;;;;;2.88;1.80;;;;;;;30.82;76.10;96535.84;5109796;28;20207;-68
2023/08/23 10:46:18;;;;;;;7.95;4.53;;;;;;;30.71;78.27;96530.84;5108642;28;20241;-69
2023/08/23 10:48:47;;;;;;;6.45;2.08;;;;;;;30.69;76.67;96525.69;5109457;27;20198;-70
2023/08/23 10:51:14;;;;;;;3.38;2.35;;;;;;;31.07;79.20;96527.25;5109683;28;20287;-70
2023/08/23 10:53:41;;;;;;;3.22;1.70;;;;;;;30.51;75.93;96528.41;5109516;28;20699;-69
2023/08/23 10:56:09;;;;;;;3.10;1.60;;;;;;;30.70;74.98;96521.06;5109542;28;20223;-70
2023/08/23 10:58:36;;;;;;;2.75;1.95;;;;;;;30.64;75.74;96516.78;5109058;28;20704;-70
2023/08/23 11:01:03;;;;;;;4.40;1.80;;;;;;;30.82;73.32;96519.50;5109425;28;20207;-70
2023/08/23 11:03:30;;;;;;;2.92;1.85;;;;;;;30.80;75.83;96518.19;5109081;28;20210;-71
2023/08/23 11:05:58;;;;;;;2.30;1.73;;;;;;;30.73;74.33;96521.28;5109315;28;20226;-71
2023/08/23 11:08:24;;;;;;;3.38;1.73;;;;;;;30.38;72.89;96512.81;5109070;28;20200;-70
2023/08/23 11:10:51;;;;;;;4.05;1.70;;;;;;;30.61;71.40;96514.66;5109086;28;20763;-69
2023/08/23 11:13:17;;;;;;;2.20;1.73;;;;;;;30.60;74.83;96510.31;5109290;28;20207;-70
2023/08/23 11:15:44;;;;;;;2.83;1.52;;;;;;;30.84;73.81;96515.38;5108799;28;20921;-70
2023/08/23 11:18:12;;;;;;;2.78;1.63;;;;;;;31.24;75.02;96522.88;5109215;28;20195;-72
2023/08/23 11:20:39;;;;;;;3.63;2.10;;;;;;;31.07;73.56;96513.66;5108774;28;20229;-71
2023/08/23 11:23:07;;;;;;;2.45;1.73;;;;;;;31.48;72.95;96516.19;5108992;28;20207;-70
2023/08/23 11:25:34;;;;;;;5.65;1.80;;;;;;;31.40;69.14;96526.13;5108694;28;20230;-70
2023/08/23 11:28:00;;;;;;;2.72;1.77;;;;;;;31.41;68.88;96517.66;5109070;28;20233;-71
2023/08/23 11:30:28;;;;;;;2.53;1.83;;;;;;;31.34;70.97;96519.97;5108613;28;20199;-70